Time;durP1;ratioP1;P1;durP2;ratioP2;P2;SDS_P1;SDS_P2;PMS_P1;PMS_P2;Temp;Humidity;BMP_temperature;BMP_pressure;BME280_temperature;BME280_humidity;BME280_pressure;Samples;Min_cycle;Max_cycle;Signal;HPM_P1;HPM_P2
2022/02/04 00:05:39;;;;;;;6.05;1.80;;;11.70;72.10;;;;;;5033216;28;20087;-82
2022/02/04 00:21:49;;;;;;;3.10;1.50;;;11.70;72.20;;;;;;5045263;28;20022;-82
2022/02/04 00:24:16;;;;;;;4.20;1.58;;;11.70;72.20;;;;;;5040105;28;20184;-83
2022/02/04 00:26:49;;;;;;;3.55;1.77;;;11.70;72.20;;;;;;5016875;28;20116;-83
2022/02/04 00:31:51;;;;;;;4.03;2.10;;;11.70;72.20;;;;;;5031285;28;20025;-82
2022/02/04 00:34:19;;;;;;;5.05;1.52;;;11.60;72.10;;;;;;5013438;28;20026;-83
2022/02/04 00:39:18;;;;;;;2.95;1.20;;;11.60;72.10;;;;;;5030156;28;20035;-83
2022/02/04 00:41:45;;;;;;;3.22;1.77;;;11.60;72.10;;;;;;5029767;28;20449;-83
2022/02/04 00:44:22;;;;;;;2.75;1.48;;;11.60;72.10;;;;;;5012351;28;20033;-82
2022/02/04 00:47:10;;;;;;;3.70;1.42;;;11.60;72.10;;;;;;5029901;28;20036;-83
2022/02/04 00:52:31;;;;;;;2.78;1.65;;;11.60;72.20;;;;;;5032420;28;20029;-82
2022/02/04 00:55:19;;;;;;;4.82;2.35;;;11.60;72.20;;;;;;5049039;28;20037;-84
2022/02/04 01:06:29;;;;;;;3.47;1.48;;;11.60;72.20;;;;;;5049742;28;20063;-83
2022/02/04 01:13:06;;;;;;;4.68;1.92;;;11.50;72.10;;;;;;5029875;28;20362;-83
2022/02/04 01:28:24;;;;;;;4.82;1.35;;;11.50;72.10;;;;;;5030595;28;20563;-83
2022/02/04 01:30:50;;;;;;;5.40;1.45;;;11.50;72.10;;;;;;5047954;28;20027;-84
2022/02/04 01:33:17;;;;;;;2.70;1.70;;;11.50;72.70;;;;;;5030864;28;20526;-85
2022/02/04 01:35:43;;;;;;;7.35;2.63;;;11.50;72.10;;;;;;5031310;28;20031;-81
2022/02/04 01:38:09;;;;;;;5.03;1.63;;;11.50;72.10;;;;;;5048443;28;20028;-81
2022/02/04 01:40:35;;;;;;;5.22;1.70;;;11.60;72.30;;;;;;5047754;28;20487;-81
2022/02/04 01:43:01;;;;;;;4.35;1.60;;;11.60;72.30;;;;;;5049180;28;20060;-81
2022/02/04 01:45:27;;;;;;;4.25;1.15;;;11.60;72.30;;;;;;5048672;28;20064;-81
2022/02/04 01:47:56;;;;;;;4.75;1.30;;;11.60;72.30;;;;;;5048456;28;20033;-84
2022/02/04 01:50:27;;;;;;;4.10;1.25;;;11.50;72.20;;;;;;5048376;28;20032;-83
2022/02/04 01:52:58;;;;;;;4.18;2.03;;;11.60;72.30;;;;;;5048517;28;20384;-83
2022/02/04 01:55:25;;;;;;;4.53;2.03;;;11.60;72.30;;;;;;5030986;28;20531;-82
2022/02/04 01:57:51;;;;;;;3.08;0.93;;;11.50;72.20;;;;;;5049091;28;20043;-82
2022/02/04 02:00:18;;;;;;;4.40;1.20;;;11.50;72.20;;;;;;5049118;28;20025;-82
2022/02/04 02:02:44;;;;;;;3.15;1.33;;;11.50;72.20;;;;;;5031679;28;20033;-81
2022/02/04 02:05:11;;;;;;;3.75;1.30;;;11.50;72.20;;;;;;5030906;28;20025;-82
2022/02/04 02:07:43;;;;;;;3.67;1.25;;;11.50;72.20;;;;;;5030608;28;20102;-82
2022/02/04 02:10:13;;;;;;;5.88;1.88;;;11.50;72.20;;;;;;5046641;28;20041;-81
2022/02/04 02:12:53;;;;;;;5.63;1.27;;;11.50;72.20;;;;;;5029265;28;20072;-81
2022/02/04 02:15:29;;;;;;;2.58;1.50;;;11.50;72.20;;;;;;5037187;28;20511;-79
2022/02/04 03:00:40;;;;;;;3.53;1.10;;;11.50;72.20;;;;;;5032842;28;20040;-80
2022/02/04 03:03:09;;;;;;;5.63;1.10;;;11.60;72.40;;;;;;5033139;28;20029;-83
2022/02/04 03:05:35;;;;;;;3.53;1.10;;;11.60;72.40;;;;;;5032816;28;20029;-84
2022/02/04 03:08:03;;;;;;;5.43;1.45;;;11.60;72.30;;;;;;5032362;28;20442;-83
2022/02/04 03:10:29;;;;;;;5.22;1.45;;;11.60;72.30;;;;;;5016174;28;20112;-85
2022/02/04 03:12:55;;;;;;;2.30;1.10;;;11.60;72.30;;;;;;5032854;28;20130;-82
2022/02/04 03:15:22;;;;;;;3.90;1.58;;;11.60;72.30;;;;;;5050787;28;20568;-83
2022/02/04 03:17:57;;;;;;;7.70;1.38;;;11.60;72.30;;;;;;5050318;28;20036;-83
2022/02/04 03:20:23;;;;;;;5.93;1.40;;;11.60;72.30;;;;;;5050752;28;20025;-83
2022/02/04 03:22:51;;;;;;;4.88;1.27;;;11.60;72.20;;;;;;5050420;28;20040;-82
2022/02/04 03:25:18;;;;;;;6.65;1.20;;;11.70;72.40;;;;;;5032620;28;20029;-82
2022/02/04 03:27:49;;;;;;;6.00;1.50;;;11.70;72.40;;;;;;5016014;28;20048;-82
2022/02/04 03:30:28;;;;;;;3.22;1.17;;;11.70;72.30;;;;;;5030925;28;20503;-82
2022/02/04 03:33:02;;;;;;;2.42;0.88;;;11.70;72.30;;;;;;5047603;28;20035;-82
2022/02/04 03:35:31;;;;;;;4.60;1.38;;;11.70;72.30;;;;;;5016381;28;20060;-81
2022/02/04 03:37:57;;;;;;;8.27;1.90;;;11.70;72.20;;;;;;5029145;28;20029;-82
2022/02/04 03:40:25;;;;;;;9.15;2.53;;;11.70;72.20;;;;;;5012188;28;20477;-82
2022/02/04 03:42:51;;;;;;;9.10;1.60;;;11.70;72.20;;;;;;5012723;28;20124;-80
2022/02/04 03:45:19;;;;;;;4.97;1.70;;;11.70;72.20;;;;;;5030228;28;20154;-80
2022/02/04 03:47:45;;;;;;;5.78;1.90;;;11.80;72.30;;;;;;5012178;28;20124;-81
2022/02/04 03:50:12;;;;;;;6.18;1.58;;;11.80;72.30;;;;;;5028873;28;20393;-81
2022/02/04 03:52:41;;;;;;;5.55;1.73;;;11.80;72.30;;;;;;5029777;28;20038;-81
2022/02/04 03:55:09;;;;;;;8.15;2.97;;;11.80;72.20;;;;;;5030385;28;20116;-84
2022/02/04 03:57:35;;;;;;;6.25;1.50;;;11.80;72.20;;;;;;5015695;28;20489;-82
2022/02/04 04:00:02;;;;;;;8.63;1.45;;;11.80;72.20;;;;;;5032486;28;20060;-82
2022/02/04 04:02:28;;;;;;;5.93;1.17;;;11.80;72.20;;;;;;5033607;28;20034;-83
2022/02/04 04:04:54;;;;;;;3.90;1.52;;;11.80;72.20;;;;;;5032530;28;20136;-84
2022/02/04 04:07:20;;;;;;;5.30;1.35;;;11.70;72.00;;;;;;5033604;28;20150;-83
2022/02/04 04:09:52;;;;;;;10.40;2.85;;;11.70;72.00;;;;;;5032574;28;20060;-81
2022/02/04 04:12:19;;;;;;;5.55;1.65;;;11.70;72.00;;;;;;5033893;28;20028;-82
2022/02/04 04:14:49;;;;;;;6.00;1.30;;;11.80;72.20;;;;;;5032236;28;20029;-80
2022/02/04 04:17:15;;;;;;;8.65;1.77;;;11.70;72.00;;;;;;5031702;28;20029;-81
2022/02/04 04:19:41;;;;;;;6.05;1.35;;;11.70;72.00;;;;;;5015958;28;20029;-81
2022/02/04 04:22:07;;;;;;;3.83;1.55;;;11.70;71.90;;;;;;5015818;28;20045;-81
2022/02/04 04:24:33;;;;;;;7.60;1.60;;;11.80;72.10;;;;;;5033438;28;20427;-81
2022/02/04 04:26:59;;;;;;;3.67;1.20;;;11.70;71.90;;;;;;5033233;28;20032;-81
2022/02/04 04:29:25;;;;;;;4.85;1.05;;;11.70;71.90;;;;;;5015575;28;20107;-81
2022/02/04 04:31:51;;;;;;;4.50;1.15;;;11.70;71.80;;;;;;5033260;28;20071;-82
2022/02/04 04:34:17;;;;;;;7.18;2.08;;;11.70;71.80;;;;;;5033195;28;20035;-81
2022/02/04 04:36:43;;;;;;;3.72;1.10;;;11.80;71.90;;;;;;5031955;28;20061;-80
2022/02/04 04:39:17;;;;;;;5.70;1.02;;;11.80;71.90;;;;;;5032873;28;20083;-81
2022/02/04 05:30:22;;;;;;;5.75;1.77;;;11.60;71.70;;;;;;5014581;28;20057;-85
2022/02/04 05:32:48;;;;;;;4.38;1.52;;;11.60;71.70;;;;;;5015938;28;20037;-85
2022/02/04 05:35:17;;;;;;;4.75;1.83;;;11.60;71.70;;;;;;5032740;28;20029;-85
2022/02/04 05:37:46;;;;;;;5.55;1.75;;;11.50;71.60;;;;;;5032474;28;20427;-86
2022/02/04 05:40:16;;;;;;;4.65;1.10;;;11.60;71.80;;;;;;5020115;28;20021;-86
2022/02/04 05:42:52;;;;;;;5.60;1.20;;;11.50;71.60;;;;;;5032457;28;20130;-86
2022/02/04 05:45:23;;;;;;;4.82;1.80;;;11.60;71.80;;;;;;5032417;28;20061;-84
2022/02/04 05:47:56;;;;;;;4.93;1.35;;;11.50;71.70;;;;;;5018336;28;20037;-86
2022/02/04 06:11:35;;;;;;;5.80;1.92;;;11.50;72.10;;;;;;5031738;28;20033;-85
2022/02/04 06:22:29;;;;;;;3.85;1.15;;;11.50;72.10;;;;;;5027615;28;20040;-81
2022/02/04 06:24:54;;;;;;;2.08;0.93;;;11.50;72.10;;;;;;5021056;28;20055;-83
2022/02/04 06:27:26;;;;;;;4.25;1.00;;;11.40;72.00;;;;;;5037110;28;20488;-82
2022/02/04 06:29:54;;;;;;;5.25;1.17;;;11.40;72.00;;;;;;5032750;28;20115;-83
2022/02/04 06:32:21;;;;;;;2.78;0.60;;;11.40;72.60;;;;;;5036880;28;20373;-83
2022/02/04 06:34:48;;;;;;;2.38;0.80;;;11.30;72.00;;;;;;5033415;28;20485;-85
2022/02/04 06:37:14;;;;;;;4.32;0.70;;;11.20;71.80;;;;;;5026519;28;20026;-86
2022/02/04 06:39:41;;;;;;;4.40;1.05;;;11.20;71.90;;;;;;5042151;28;20025;-84
2022/02/04 06:42:07;;;;;;;2.05;0.50;;;11.20;72.00;;;;;;5029148;28;20349;-82
2022/02/04 06:44:34;;;;;;;2.05;0.65;;;11.10;72.00;;;;;;5026191;28;20124;-79
2022/02/04 06:47:01;;;;;;;4.25;0.80;;;11.10;72.20;;;;;;5027182;28;20069;-83
2022/02/04 06:49:27;;;;;;;2.25;0.68;;;11.00;72.10;;;;;;5034357;28;20037;-82
2022/02/04 06:51:53;;;;;;;2.05;0.65;;;11.00;72.30;;;;;;5037448;28;20537;-77
2022/02/04 06:54:19;;;;;;;1.88;1.15;;;10.90;72.30;;;;;;5036832;28;20029;-84
2022/02/04 06:56:45;;;;;;;2.90;0.70;;;10.90;72.50;;;;;;5021678;28;20029;-80
2022/02/04 06:59:11;;;;;;;3.75;0.60;;;10.90;72.60;;;;;;5041330;28;20025;-80
2022/02/04 07:01:37;;;;;;;2.40;0.68;;;10.80;72.60;;;;;;5037974;28;20495;-80
2022/02/04 07:04:06;;;;;;;2.65;1.10;;;10.80;72.70;;;;;;5038212;28;20037;-84
2022/02/04 07:06:37;;;;;;;2.38;0.70;;;10.80;72.80;;;;;;5017605;28;20064;-78
2022/02/04 07:17:10;;;;;;;1.58;0.40;;;10.70;73.10;;;;;;5026165;28;20041;-76
2022/02/04 07:19:46;;;;;;;2.75;0.88;;;10.60;73.00;;;;;;5037473;28;20480;-78
2022/02/04 07:22:36;;;;;;;0.80;0.30;;;10.60;73.00;;;;;;5034374;28;20032;-77
2022/02/04 07:25:05;;;;;;;1.55;0.40;;;10.50;72.90;;;;;;5026936;28;20031;-78
2022/02/04 07:27:34;;;;;;;1.67;0.50;;;10.50;73.40;;;;;;4992861;28;20065;-80
2022/02/04 07:30:01;;;;;;;1.23;0.65;;;10.40;72.80;;;;;;5026038;28;20033;-80
2022/02/04 07:43:01;;;;;;;1.90;0.40;;;10.20;72.70;;;;;;5016142;28;20032;-84
2022/02/04 07:45:27;;;;;;;0.70;0.47;;;10.10;72.60;;;;;;5050177;28;20083;-83
2022/02/04 07:47:53;;;;;;;2.20;0.60;;;10.10;72.60;;;;;;5050054;28;20041;-85
2022/02/04 07:50:23;;;;;;;1.00;0.47;;;10.10;72.70;;;;;;5013165;28;20041;-84
2022/02/04 07:52:53;;;;;;;1.17;0.40;;;10.10;72.70;;;;;;5013720;28;20436;-84
2022/02/04 07:55:21;;;;;;;0.73;0.40;;;10.00;72.60;;;;;;5014205;28;20033;-88
2022/02/04 07:57:48;;;;;;;1.48;0.30;;;10.00;72.60;;;;;;5015011;28;20029;-86
2022/02/04 08:00:16;;;;;;;1.35;0.30;;;10.00;72.60;;;;;;5015065;28;20095;-88
2022/02/04 08:02:47;;;;;;;0.60;0.50;;;9.90;72.50;;;;;;5032907;28;20576;-87
2022/02/04 08:05:17;;;;;;;1.27;0.30;;;9.90;72.50;;;;;;5032651;28;20067;-86
2022/02/04 08:07:56;;;;;;;0.80;0.30;;;9.90;72.50;;;;;;5036266;28;20147;-86
2022/02/04 08:56:57;;;;;;;0.35;0.30;;;9.80;72.10;;;;;;5049655;28;20437;-82
2022/02/04 08:59:51;;;;;;;0.47;0.40;;;9.70;71.90;;;;;;5018633;28;20116;-83
2022/02/04 09:02:31;;;;;;;0.40;0.40;;;9.80;72.10;;;;;;5014015;28;20044;-79
2022/02/04 09:04:59;;;;;;;0.52;0.30;;;9.80;72.00;;;;;;5030819;28;20037;-79
2022/02/04 09:07:32;;;;;;;0.25;0.25;;;9.80;71.90;;;;;;5008417;28;20042;-79
2022/02/04 09:10:09;;;;;;;0.73;0.30;;;9.90;72.10;;;;;;5028366;28;20069;-79
2022/02/04 09:20:58;;;;;;;0.40;0.20;;;9.80;71.60;;;;;;5028901;28;20037;-78
2022/02/04 09:23:26;;;;;;;1.50;0.30;;;9.80;71.50;;;;;;5029297;28;20388;-79
2022/02/04 09:25:53;;;;;;;0.30;0.20;;;9.90;71.60;;;;;;4994884;28;20029;-79
2022/02/04 09:28:19;;;;;;;0.30;0.20;;;9.90;71.60;;;;;;5028868;28;20059;-78
2022/02/04 09:30:45;;;;;;;0.40;0.30;;;9.80;71.40;;;;;;5028804;28;20045;-77
2022/02/04 09:33:14;;;;;;;0.98;0.45;;;9.80;71.40;;;;;;5010725;28;20488;-78
2022/02/04 09:35:41;;;;;;;0.32;0.20;;;9.80;71.40;;;;;;5028614;28;20401;-78
2022/02/04 09:38:08;;;;;;;0.17;0.17;;;9.80;71.40;;;;;;5028511;28;20037;-78
2022/02/04 09:40:35;;;;;;;0.13;0.13;;;9.80;71.40;;;;;;5010836;28;20469;-77
2022/02/04 09:43:02;;;;;;;0.15;0.15;;;9.80;71.40;;;;;;5029218;28;20059;-77
2022/02/04 09:45:29;;;;;;;0.20;0.20;;;9.80;71.40;;;;;;5028174;28;20531;-78
2022/02/04 09:48:01;;;;;;;0.50;0.20;;;9.80;71.40;;;;;;5028581;28;20071;-77
2022/02/04 09:50:30;;;;;;;1.05;0.30;;;9.80;71.40;;;;;;5010962;28;20040;-77
2022/02/04 10:15:21;;;;;;;0.50;0.32;;;9.70;71.10;;;;;;5027541;28;20564;-76
2022/02/04 10:18:14;;;;;;;1.30;0.33;;;9.70;71.10;;;;;;5027316;28;20037;-77
2022/02/04 10:20:42;;;;;;;1.02;0.50;;;9.70;71.00;;;;;;4994162;28;20029;-77
2022/02/04 10:23:09;;;;;;;1.98;0.40;;;9.70;71.00;;;;;;5027993;28;20037;-76
2022/02/04 10:25:38;;;;;;;1.83;0.43;;;9.70;71.00;;;;;;5027474;28;20118;-79
2022/02/04 10:28:32;;;;;;;0.80;0.47;;;9.70;71.00;;;;;;5027883;28;20077;-78
2022/02/04 10:31:22;;;;;;;1.77;0.43;;;9.70;71.00;;;;;;5010056;28;20087;-80
2022/02/04 10:33:59;;;;;;;3.75;1.23;;;9.70;70.90;;;;;;5017403;28;20506;-79
2022/02/04 10:36:45;;;;;;;2.72;0.60;;;9.70;70.90;;;;;;4993572;28;20036;-77
2022/02/04 10:40:21;;;;;;;4.00;0.88;;;9.70;71.00;;;;;;5027433;28;20041;-78
2022/02/04 10:45:21;;;;;;;2.85;0.80;;;9.70;70.90;;;;;;5026945;28;20036;-78
2022/02/04 10:51:05;;;;;;;2.35;0.70;;;9.80;70.90;;;;;;5027642;28;20303;-77
2022/02/04 11:03:59;;;;;;;3.20;0.82;;;9.80;70.70;;;;;;5009798;28;20064;-77
2022/02/04 11:09:25;;;;;;;;;;;9.80;70.60;;;;;;5001992;28;20125;-77
2022/02/04 11:48:14;;;;;;;4.80;1.33;;;10.10;70.40;;;;;;4945930;29;20546;-78
2022/02/04 11:53:54;;;;;;;5.75;1.50;;;10.30;70.30;;;;;;5021994;28;20065;-76
2022/02/04 11:56:20;;;;;;;4.22;1.13;;;10.40;70.20;;;;;;5027118;28;20036;-77
2022/02/04 11:59:04;;;;;;;3.65;0.93;;;10.60;70.30;;;;;;5026627;28;20061;-78
2022/02/04 12:01:43;;;;;;;3.60;1.42;;;10.70;70.10;;;;;;5027194;28;20049;-78
2022/02/04 12:04:27;;;;;;;6.45;1.92;;;10.90;70.10;;;;;;5029286;28;20025;-76
2022/02/04 12:06:56;;;;;;;4.72;1.02;;;11.00;69.80;;;;;;5036962;28;20040;-76
2022/02/04 12:09:46;;;;;;;7.25;1.58;;;11.10;69.70;;;;;;5048418;28;20045;-79
2022/02/04 12:12:50;;;;;;;2.28;0.77;;;11.20;69.60;;;;;;5047527;28;20039;-81
2022/02/04 12:15:31;;;;;;;2.50;0.80;;;11.30;69.40;;;;;;5028889;28;20553;-79
2022/02/04 12:18:00;;;;;;;2.40;1.10;;;11.50;69.40;;;;;;5014478;28;20414;-79
2022/02/04 12:20:44;;;;;;;2.38;1.55;;;11.60;69.30;;;;;;5032540;28;20450;-77
2022/02/04 12:23:34;;;;;;;4.18;1.55;;;11.60;69.00;;;;;;5032270;28;20132;-78
2022/02/04 12:26:01;;;;;;;5.50;1.00;;;11.70;69.10;;;;;;5049236;28;20033;-84
2022/02/04 12:28:52;;;;;;;7.05;1.45;;;11.70;69.10;;;;;;5015122;28;20041;-81
2022/02/04 12:31:30;;;;;;;4.25;1.02;;;11.70;69.20;;;;;;5048559;28;20037;-81
2022/02/04 12:34:05;;;;;;;3.05;1.00;;;11.70;69.20;;;;;;5050228;28;20029;-80
2022/02/04 12:36:46;;;;;;;11.55;2.28;;;11.70;69.20;;;;;;5032193;28;20032;-78
2022/02/04 12:39:21;;;;;;;3.85;0.90;;;11.70;69.10;;;;;;5048104;28;20091;-81
2022/02/04 12:41:53;;;;;;;5.28;1.10;;;11.70;69.10;;;;;;5032126;28;20380;-81
2022/02/04 12:44:21;;;;;;;7.47;1.17;;;11.70;69.20;;;;;;5031343;28;20488;-82
2022/02/04 12:46:55;;;;;;;4.43;1.00;;;11.70;69.10;;;;;;5049562;28;20071;-81
2022/02/04 12:49:26;;;;;;;4.82;1.90;;;11.60;68.90;;;;;;5031132;28;20060;-80
2022/02/04 12:54:43;;;;;;;4.93;1.20;;;11.60;68.80;;;;;;5049732;28;20487;-81
2022/02/04 13:10:38;;;;;;;2.65;1.67;;;11.70;69.00;;;;;;5048861;28;20516;-84
2022/02/04 13:13:10;;;;;;;2.25;0.63;;;11.70;69.10;;;;;;5049134;28;20055;-82
2022/02/04 13:15:37;;;;;;;;;;;11.80;69.20;;;;;;5014954;28;20029;-78
2022/02/04 13:18:09;;;;;;;4.57;1.98;;;11.80;69.10;;;;;;5047190;28;20383;-78
2022/02/04 13:20:37;;;;;;;3.25;0.93;;;11.70;68.90;;;;;;5048925;28;20073;-82
2022/02/04 13:23:11;;;;;;;4.13;1.05;;;11.80;69.10;;;;;;5025854;28;20026;-82
2022/02/04 13:25:46;;;;;;;4.22;1.23;;;11.80;69.10;;;;;;5037648;28;20037;-81
2022/02/04 13:28:17;;;;;;;7.53;1.10;;;11.80;69.00;;;;;;5028688;28;20119;-79
2022/02/04 13:31:04;;;;;;;3.83;0.88;;;11.80;69.00;;;;;;5039976;28;20115;-79
2022/02/04 13:33:45;;;;;;;4.72;1.10;;;11.80;68.90;;;;;;5013359;28;20029;-81
2022/02/04 13:44:42;;;;;;;4.18;1.38;;;11.80;68.70;;;;;;5028151;28;20029;-78
2022/02/04 13:47:23;;;;;;;4.13;0.80;;;11.80;68.60;;;;;;4991500;28;20248;-79
2022/02/04 13:50:20;;;;;;;2.38;0.93;;;11.80;68.60;;;;;;5027465;28;20052;-80
2022/02/04 13:55:56;;;;;;;5.13;1.50;;;11.90;68.60;;;;;;5030116;28;20032;-77
2022/02/04 14:01:14;;;;;;;4.22;0.90;;;11.90;68.40;;;;;;5013256;28;20249;-79
2022/02/04 14:03:47;;;;;;;2.22;0.57;;;11.90;68.40;;;;;;5029927;28;20034;-79
2022/02/04 14:06:33;;;;;;;3.38;0.90;;;11.80;68.20;;;;;;5013480;28;20119;-77
2022/02/04 14:09:12;;;;;;;2.15;0.63;;;11.80;68.20;;;;;;5047316;28;20037;-83
2022/02/04 14:11:43;;;;;;;2.90;0.70;;;11.70;68.00;;;;;;5029692;28;20389;-84
2022/02/04 14:14:12;;;;;;;3.10;0.93;;;11.70;68.10;;;;;;5029599;28;20267;-83
2022/02/04 14:16:41;;;;;;;2.38;0.95;;;11.70;68.10;;;;;;5013178;28;20032;-80
2022/02/04 14:19:07;;;;;;;3.97;1.77;;;11.70;68.10;;;;;;5003609;28;20524;-82
2022/02/04 14:21:35;;;;;;;6.28;0.98;;;11.60;67.90;;;;;;5010379;28;20119;-81
2022/02/04 14:24:07;;;;;;;3.58;1.20;;;11.60;67.90;;;;;;5047892;28;20029;-84
2022/02/04 14:26:38;;;;;;;2.40;0.98;;;11.70;68.00;;;;;;5047348;28;20029;-83
2022/02/04 14:53:15;;;;;;;2.72;1.42;;;11.60;67.40;;;;;;5027109;28;20025;-77
2022/02/04 15:06:35;;;;;;;1.92;0.70;;;11.50;67.10;;;;;;5046961;28;20496;-78
2022/02/04 15:09:08;;;;;;;5.05;1.88;;;11.40;66.90;;;;;;5018420;28;20049;-80
2022/02/04 15:11:37;;;;;;;4.13;0.98;;;11.40;67.00;;;;;;5010259;28;20034;-78
2022/02/04 15:14:05;;;;;;;4.65;1.45;;;11.40;67.00;;;;;;5015051;28;20112;-77
2022/02/04 15:16:32;;;;;;;2.58;0.60;;;11.40;67.10;;;;;;5029591;28;20030;-78
2022/02/04 15:18:59;;;;;;;3.97;0.47;;;11.40;67.00;;;;;;5043320;28;20531;-79
2022/02/04 15:21:26;;;;;;;1.92;0.70;;;11.30;66.90;;;;;;5033910;28;20090;-79
2022/02/04 15:23:54;;;;;;;3.72;0.80;;;11.30;66.80;;;;;;5034505;28;20376;-78
2022/02/04 15:26:23;;;;;;;2.97;0.90;;;11.30;66.80;;;;;;5049779;28;20110;-78
2022/02/04 15:34:02;;;;;;;1.60;0.70;;;11.20;66.60;;;;;;5027408;28;20061;-77
2022/02/04 15:36:34;;;;;;;2.53;0.80;;;11.20;66.70;;;;;;5027104;28;20075;-77
2022/02/04 15:39:03;;;;;;;4.55;1.00;;;11.20;66.70;;;;;;5026865;28;20052;-78
2022/02/04 15:41:29;;;;;;;3.83;0.80;;;11.10;66.50;;;;;;5027436;28;20025;-77
2022/02/04 15:44:04;;;;;;;3.38;0.60;;;11.10;66.50;;;;;;5026907;28;20120;-78
2022/02/04 15:46:44;;;;;;;4.22;1.45;;;11.10;66.50;;;;;;5045075;28;20232;-79
2022/02/04 16:04:52;;;;;;;2.00;0.70;;;10.80;66.20;;;;;;5030320;28;20025;-78
2022/02/04 16:07:21;;;;;;;2.17;0.90;;;10.70;66.10;;;;;;5030119;28;20104;-79
2022/02/04 16:09:51;;;;;;;3.33;1.08;;;10.70;66.20;;;;;;5030077;28;20046;-77
2022/02/04 16:12:29;;;;;;;3.33;1.20;;;10.60;66.10;;;;;;5030125;28;20072;-78
2022/02/04 16:15:03;;;;;;;2.03;0.68;;;10.60;66.10;;;;;;5029972;28;20068;-78
2022/02/04 16:17:36;;;;;;;3.25;0.75;;;10.60;66.20;;;;;;5013175;28;20402;-77
2022/02/04 16:26:10;;;;;;;4.38;1.35;;;10.50;66.10;;;;;;5035863;28;20052;-82
2022/02/04 16:30:58;;;;;;;3.35;1.00;;;10.50;66.10;;;;;;5030842;28;20079;-81
2022/02/04 16:33:25;;;;;;;6.28;1.05;;;10.50;66.00;;;;;;4982630;28;20496;-83
2022/02/04 16:35:51;;;;;;;4.25;0.90;;;10.50;66.00;;;;;;5049923;28;20056;-80
2022/02/04 16:38:19;;;;;;;3.05;0.88;;;10.50;65.90;;;;;;5045812;28;20045;-80
2022/02/04 16:40:46;;;;;;;3.40;1.08;;;10.50;65.80;;;;;;5042216;28;20029;-80
2022/02/04 16:43:15;;;;;;;2.33;1.02;;;10.50;65.80;;;;;;5070048;28;20646;-81
2022/02/04 16:45:42;;;;;;;5.63;1.15;;;10.50;65.80;;;;;;5051438;28;20032;-80
2022/02/04 16:48:08;;;;;;;1.80;0.80;;;10.50;65.80;;;;;;5066458;28;20048;-80
2022/02/04 16:50:34;;;;;;;3.03;0.88;;;10.40;65.60;;;;;;5031063;28;20049;-80
2022/02/04 16:53:00;;;;;;;3.03;0.88;;;10.40;65.70;;;;;;5030336;28;20033;-81
2022/02/04 16:55:26;;;;;;;3.13;1.10;;;10.40;65.70;;;;;;5031605;28;20365;-79
2022/02/04 16:57:52;;;;;;;3.60;0.82;;;10.40;65.80;;;;;;5049441;28;20430;-76
2022/02/04 17:00:27;;;;;;;4.70;1.52;;;10.30;65.70;;;;;;5049101;28;20033;-81
2022/02/04 17:02:57;;;;;;;2.85;1.13;;;10.30;65.80;;;;;;5014645;28;20375;-81
2022/02/04 17:05:26;;;;;;;2.25;1.02;;;10.30;66.10;;;;;;5030528;28;20072;-83
2022/02/04 17:07:55;;;;;;;2.25;0.90;;;10.30;66.20;;;;;;5048403;28;20084;-79
2022/02/04 17:10:32;;;;;;;4.47;1.20;;;10.20;66.00;;;;;;5030706;28;20396;-79
2022/02/04 17:13:01;;;;;;;2.40;0.90;;;10.20;66.10;;;;;;5048769;28;20029;-81
2022/02/04 17:15:35;;;;;;;5.50;1.35;;;10.20;66.10;;;;;;5048517;28;20182;-80
2022/02/04 17:18:03;;;;;;;4.07;1.05;;;10.20;66.20;;;;;;5047123;28;20090;-80
2022/02/04 17:20:30;;;;;;;7.32;1.90;;;10.10;66.10;;;;;;5011396;28;20033;-81
2022/02/04 17:23:01;;;;;;;5.40;1.58;;;10.10;66.20;;;;;;5028651;28;20030;-81
2022/02/04 17:25:28;;;;;;;4.20;1.05;;;10.00;66.10;;;;;;5034422;28;20037;-80
2022/02/04 17:27:56;;;;;;;4.63;1.77;;;9.90;66.00;;;;;;5033546;28;20031;-81
2022/02/04 17:30:24;;;;;;;3.55;1.20;;;9.80;66.00;;;;;;4994757;28;20041;-80
2022/02/04 17:32:51;;;;;;;6.72;1.50;;;9.80;66.10;;;;;;5028382;28;20061;-79
2022/02/04 17:35:20;;;;;;;5.15;1.15;;;9.80;66.20;;;;;;5028473;28;20076;-80
2022/02/04 17:37:46;;;;;;;5.80;1.40;;;9.80;66.20;;;;;;5011258;28;20080;-80
2022/02/04 17:40:15;;;;;;;2.28;1.02;;;9.70;66.10;;;;;;5028427;28;20083;-79
2022/02/04 17:42:43;;;;;;;3.20;1.08;;;9.70;66.20;;;;;;5028973;28;20033;-77
2022/02/04 17:45:11;;;;;;;7.35;1.40;;;9.60;66.10;;;;;;5028564;28;20040;-77
2022/02/04 17:47:37;;;;;;;10.30;1.67;;;9.60;66.10;;;;;;5029352;28;20175;-77
2022/02/04 17:50:22;;;;;;;6.03;1.33;;;9.50;66.00;;;;;;5010837;28;20052;-78
2022/02/04 17:52:58;;;;;;;3.03;1.10;;;9.50;66.00;;;;;;5026724;28;20029;-78
2022/02/04 17:55:31;;;;;;;4.68;1.08;;;9.50;66.10;;;;;;5010727;28;20040;-78
2022/02/04 17:58:11;;;;;;;;;;;9.50;66.20;;;;;;5011892;28;20025;-77
2022/02/04 18:06:13;;;;;;;5.15;1.25;;;9.30;66.00;;;;;;5048157;28;20044;-78
2022/02/04 18:08:39;;;;;;;5.57;1.73;;;9.30;66.00;;;;;;5024859;28;20041;-78
2022/02/04 18:11:05;;;;;;;6.68;1.45;;;9.30;66.10;;;;;;5025236;28;20083;-79
2022/02/04 18:13:32;;;;;;;7.65;1.88;;;9.20;66.00;;;;;;5027741;28;20080;-78
2022/02/04 18:16:01;;;;;;;3.90;1.65;;;9.20;66.00;;;;;;5012415;28;20041;-80
2022/02/04 18:18:28;;;;;;;4.38;1.40;;;9.20;66.30;;;;;;5011379;28;20021;-78
2022/02/04 18:20:55;;;;;;;6.20;1.70;;;9.20;66.70;;;;;;5048567;28;20099;-79
2022/02/04 18:23:22;;;;;;;4.72;1.30;;;9.30;67.00;;;;;;5024477;28;20025;-77
2022/02/04 18:25:49;;;;;;;4.13;1.33;;;9.30;67.00;;;;;;5035283;28;20041;-79
2022/02/04 18:28:15;;;;;;;7.03;1.63;;;9.40;67.20;;;;;;5035234;28;20095;-77
2022/02/04 18:30:42;;;;;;;3.72;1.08;;;9.30;67.00;;;;;;5041023;28;20058;-79
2022/02/04 18:33:08;;;;;;;4.45;1.48;;;9.30;67.00;;;;;;5041325;28;20025;-79
2022/02/04 18:35:35;;;;;;;7.10;1.45;;;9.40;67.20;;;;;;5026531;28;20408;-79
2022/02/04 18:38:12;;;;;;;3.92;1.33;;;9.30;67.10;;;;;;5035274;28;20025;-78
2022/02/04 18:46:08;;;;;;;4.95;1.23;;;9.20;67.00;;;;;;5029592;28;20102;-78
2022/02/04 18:48:45;;;;;;;5.95;1.95;;;9.20;67.50;;;;;;5047158;28;20033;-79
2022/02/04 18:53:54;;;;;;;6.28;1.30;;;9.20;67.00;;;;;;5028972;28;20026;-78
2022/02/04 18:59:06;;;;;;;4.10;1.70;;;9.20;67.00;;;;;;5030098;28;20053;-77
2022/02/04 19:01:32;;;;;;;5.28;1.60;;;9.10;66.80;;;;;;5010166;28;20096;-76
2022/02/04 19:04:03;;;;;;;7.45;1.40;;;9.20;67.00;;;;;;5027065;28;20040;-77
2022/02/04 19:06:36;;;;;;;4.75;1.50;;;9.10;66.90;;;;;;5017629;28;20144;-77
2022/02/04 19:09:04;;;;;;;3.55;1.20;;;9.10;66.90;;;;;;5030463;28;20036;-77
2022/02/04 19:11:39;;;;;;;4.07;1.23;;;9.10;66.90;;;;;;5012887;28;20027;-77
2022/02/04 19:14:24;;;;;;;5.03;2.10;;;9.10;66.90;;;;;;5047076;28;20071;-77
2022/02/04 19:17:06;;;;;;;4.25;1.30;;;9.10;66.90;;;;;;5047439;28;20488;-79
2022/02/04 19:19:55;;;;;;;7.18;1.60;;;9.10;66.90;;;;;;5043527;28;20057;-79
2022/02/04 19:24:57;;;;;;;6.03;1.70;;;9.10;67.00;;;;;;5009295;28;20029;-78
2022/02/04 19:27:23;;;;;;;2.85;0.98;;;9.00;66.90;;;;;;5028106;28;20052;-77
2022/02/04 19:29:49;;;;;;;4.80;1.30;;;9.00;66.90;;;;;;5037166;28;20047;-77
2022/02/04 19:32:16;;;;;;;2.97;1.88;;;9.00;66.90;;;;;;5032975;28;20060;-77
2022/02/04 19:34:43;;;;;;;5.18;2.03;;;9.00;66.90;;;;;;5016931;28;20543;-75
2022/02/04 19:37:09;;;;;;;3.47;1.35;;;9.00;67.00;;;;;;5050947;28;20116;-77
2022/02/04 19:39:35;;;;;;;3.20;1.33;;;9.00;67.20;;;;;;5022103;28;20189;-77
2022/02/04 19:42:09;;;;;;;6.65;1.27;;;9.00;67.80;;;;;;5050793;28;20025;-76
2022/02/04 19:44:38;;;;;;;4.40;1.55;;;9.10;68.20;;;;;;5016106;28;20041;-77
2022/02/04 19:47:11;;;;;;;4.05;1.73;;;9.20;68.40;;;;;;5012691;28;20510;-77
2022/02/04 19:49:57;;;;;;;7.28;1.88;;;9.20;68.40;;;;;;5031797;28;20481;-77
2022/02/04 19:52:47;;;;;;;5.28;1.20;;;9.10;68.10;;;;;;5018913;28;20036;-77
2022/02/04 20:16:27;;;;;;;5.32;1.40;;;8.90;68.10;;;;;;4987595;28;20041;-77
2022/02/04 20:25:48;;;;;;;2.35;1.10;;;8.80;68.20;;;;;;5039186;28;20029;-76
2022/02/04 20:28:16;;;;;;;7.00;1.77;;;8.80;68.20;;;;;;5030065;28;20051;-75
2022/02/04 20:30:45;;;;;;;7.95;2.00;;;8.80;68.20;;;;;;5012101;28;20037;-75
2022/02/04 20:33:12;;;;;;;3.55;1.48;;;8.80;68.30;;;;;;5029801;28;20105;-75
2022/02/04 20:35:41;;;;;;;6.53;1.70;;;8.70;68.10;;;;;;5028510;28;20032;-75
2022/02/04 20:38:08;;;;;;;5.97;1.83;;;8.70;68.20;;;;;;5029671;28;20044;-76
2022/02/04 20:40:38;;;;;;;6.55;1.75;;;8.70;68.30;;;;;;5012690;28;20048;-76
2022/02/04 20:43:04;;;;;;;4.88;1.77;;;8.70;68.40;;;;;;5028190;28;20110;-77
2022/02/04 20:45:31;;;;;;;5.28;1.23;;;8.70;68.40;;;;;;5012415;28;20034;-76
2022/02/04 20:47:59;;;;;;;3.97;1.90;;;8.70;68.40;;;;;;5040312;28;20029;-77
2022/02/04 20:50:29;;;;;;;2.55;1.00;;;8.70;68.40;;;;;;5029106;28;20125;-77
2022/02/04 20:52:56;;;;;;;4.47;1.42;;;8.70;68.50;;;;;;5026114;28;20067;-77
2022/02/04 20:55:23;;;;;;;3.78;1.58;;;8.70;68.50;;;;;;5049026;28;20281;-77
2022/02/04 20:57:54;;;;;;;3.22;1.40;;;8.60;68.30;;;;;;5031252;28;20025;-77